Terminal Aerodrome Forecast
Issued by NWS Paducah, KY

Home | Current Version | Previous Version | Text Only | Print | Product List | Glossary On
Versions: 1 2 3 4 5 6 7 8 9 10 11 12 13 14 15 16 17 18 19
000
FTUS43 KPAH 282337
TAFEVV
TAF
KEVV 282337Z 2900/2924 23005KT P6SM FEW040 BKN250
     FM290900 00000KT 6SM BR SCT035 BKN100 PROB30 2909/2915 4SM TSRA
      BR BKN035CB
     FM291500 28006KT P6SM FEW030=

USA.gov is the U.S. government's official web portal to all federal, state and local government web resources and services.